Time;durP1;ratioP1;P1;durP2;ratioP2;P2;SDS_P1;SDS_P2;PMS_P1;PMS_P2;Temp;Humidity;BMP_temperature;BMP_pressure;BME280_temperature;BME280_humidity;BME280_pressure;Samples;Min_cycle;Max_cycle;Signal;HPM_P1;HPM_P2
2023/10/03 00:01:31;;;;;;;70.00;32.55;;;17.40;99.90;;;;;;4937561;29;20095;-86
2023/10/03 00:04:19;;;;;;;67.50;34.13;;;17.40;99.90;;;;;;4937822;29;20051;-83
2023/10/03 00:07:05;;;;;;;71.20;33.88;;;17.40;99.90;;;;;;4937646;29;20059;-76
2023/10/03 00:09:51;;;;;;;68.70;33.33;;;17.40;99.90;;;;;;4937597;29;20118;-80
2023/10/03 00:12:37;;;;;;;76.90;36.53;;;17.40;99.90;;;;;;4954790;28;20123;-76
2023/10/03 00:15:24;;;;;;;71.88;35.13;;;17.40;99.90;;;;;;4937454;29;20096;-80
2023/10/03 00:18:11;;;;;;;74.07;34.65;;;17.40;99.90;;;;;;4924349;29;20523;-81
2023/10/03 00:20:57;;;;;;;72.82;33.80;;;17.40;99.90;;;;;;4937361;29;20106;-82
2023/10/03 00:23:43;;;;;;;72.60;34.85;;;17.40;99.90;;;;;;4954334;28;20512;-79
2023/10/03 00:26:31;;;;;;;74.15;36.00;;;17.40;99.90;;;;;;4937339;29;20047;-81
2023/10/03 00:29:23;;;;;;;68.82;33.22;;;17.40;99.90;;;;;;4936709;29;20055;-79
2023/10/03 00:32:09;;;;;;;67.80;31.50;;;17.40;99.90;;;;;;4937628;29;20141;-83
2023/10/03 00:34:56;;;;;;;70.80;33.70;;;17.40;99.90;;;;;;4937358;29;20198;-78
2023/10/03 00:37:46;;;;;;;70.20;32.90;;;17.40;99.90;;;;;;4954558;28;20039;-76
2023/10/03 00:40:32;;;;;;;64.20;33.10;;;17.40;99.90;;;;;;4937310;29;20058;-83
2023/10/03 00:43:18;;;;;;;71.45;33.45;;;17.40;99.90;;;;;;4937251;29;20086;-80
2023/10/03 00:46:04;;;;;;;62.90;32.13;;;17.50;99.90;;;;;;4937093;29;20151;-77
2023/10/03 00:48:50;;;;;;;69.25;32.22;;;17.50;99.90;;;;;;4954325;28;20054;-73
2023/10/03 00:51:40;;;;;;;58.78;29.42;;;17.50;99.90;;;;;;4939903;29;20054;-76
2023/10/03 00:54:27;;;;;;;64.90;29.42;;;17.50;99.90;;;;;;4937040;29;20058;-82
2023/10/03 00:57:15;;;;;;;58.22;29.20;;;17.50;99.90;;;;;;4936853;29;20062;-78
2023/10/03 01:00:01;;;;;;;61.30;28.38;;;17.50;99.90;;;;;;4922185;29;20067;-77
2023/10/03 01:02:51;;;;;;;58.58;29.23;;;17.40;99.90;;;;;;4936023;29;20055;-82
2023/10/03 01:05:37;;;;;;;63.65;29.85;;;17.50;99.90;;;;;;4936933;29;20086;-81
2023/10/03 01:08:24;;;;;;;58.95;28.73;;;17.40;99.90;;;;;;4936144;29;20051;-76
2023/10/03 01:11:24;;;;;;;57.55;28.90;;;17.40;99.90;;;;;;4936919;29;20047;-76
2023/10/03 01:14:10;;;;;;;57.60;28.13;;;17.40;99.90;;;;;;4953845;28;20058;-80
2023/10/03 01:16:56;;;;;;;54.30;27.05;;;17.40;99.90;;;;;;4938100;29;20150;-75
2023/10/03 01:19:43;;;;;;;58.58;27.40;;;17.40;99.90;;;;;;4945111;29;20844;-76
2023/10/03 01:22:29;;;;;;;62.20;27.88;;;17.40;99.90;;;;;;4944864;29;20066;-74
2023/10/03 01:25:16;;;;;;;51.15;25.10;;;17.40;99.90;;;;;;4946008;29;20504;-72
2023/10/03 01:28:02;;;;;;;52.20;26.45;;;17.40;99.90;;;;;;4945640;29;20051;-72
2023/10/03 01:30:51;;;;;;;56.15;27.65;;;17.40;99.90;;;;;;4937408;29;20058;-75
2023/10/03 01:33:37;;;;;;;54.83;25.98;;;17.40;99.90;;;;;;4936257;29;20503;-74
2023/10/03 01:36:26;;;;;;;51.50;24.50;;;17.40;99.90;;;;;;4936402;29;20051;-73
2023/10/03 01:39:13;;;;;;;55.90;26.38;;;17.40;99.90;;;;;;4936410;29;20542;-74
2023/10/03 01:41:59;;;;;;;54.05;24.80;;;17.30;99.90;;;;;;4936462;29;20061;-72
2023/10/03 01:44:45;;;;;;;61.60;28.08;;;17.30;99.90;;;;;;4936352;29;20480;-76
2023/10/03 01:47:31;;;;;;;54.80;25.50;;;17.30;99.90;;;;;;4936255;29;20055;-76
2023/10/03 01:50:19;;;;;;;53.75;26.33;;;17.30;99.90;;;;;;4935954;29;20054;-73
2023/10/03 01:53:07;;;;;;;54.45;25.17;;;17.20;99.90;;;;;;4935440;29;20129;-73
2023/10/03 01:55:53;;;;;;;53.55;25.98;;;17.20;99.90;;;;;;4936365;29;20055;-75
2023/10/03 01:58:39;;;;;;;57.50;25.35;;;17.10;99.90;;;;;;4953409;28;20051;-79
2023/10/03 02:01:26;;;;;;;51.70;24.05;;;17.10;99.90;;;;;;4936305;29;20059;-72
2023/10/03 02:04:12;;;;;;;54.13;26.73;;;17.10;99.90;;;;;;4953620;28;20788;-77
2023/10/03 02:06:58;;;;;;;58.33;27.10;;;17.10;99.90;;;;;;4953339;28;20058;-74
2023/10/03 02:09:44;;;;;;;49.88;23.73;;;17.10;99.90;;;;;;4935904;29;20059;-78
2023/10/03 02:12:30;;;;;;;49.83;23.13;;;17.10;99.90;;;;;;4937502;29;20047;-75
2023/10/03 02:15:22;;;;;;;48.63;22.25;;;17.10;99.90;;;;;;4940250;29;20051;-75
2023/10/03 02:18:29;;;;;;;49.67;23.23;;;17.00;99.90;;;;;;4939363;29;20138;-72
2023/10/03 02:21:17;;;;;;;52.35;22.58;;;17.00;99.90;;;;;;4938656;29;20516;-74
2023/10/03 02:24:05;;;;;;;53.05;24.88;;;17.00;99.90;;;;;;4939110;29;20062;-78
2023/10/03 02:26:51;;;;;;;52.58;23.33;;;17.00;99.90;;;;;;4939478;29;20055;-77
2023/10/03 02:29:38;;;;;;;55.80;26.10;;;17.00;99.90;;;;;;4938859;29;20062;-77
2023/10/03 02:32:25;;;;;;;53.75;23.38;;;17.00;99.90;;;;;;4939492;29;20137;-76
2023/10/03 02:35:14;;;;;;;55.38;23.73;;;17.00;99.90;;;;;;4955992;29;20054;-74
2023/10/03 02:38:03;;;;;;;51.05;23.63;;;17.00;99.90;;;;;;4956402;29;20047;-75
2023/10/03 02:40:49;;;;;;;53.75;23.33;;;16.90;99.90;;;;;;4939773;29;20114;-76
2023/10/03 02:43:36;;;;;;;49.97;24.50;;;16.90;99.90;;;;;;4942018;29;20059;-72
2023/10/03 02:46:22;;;;;;;53.17;23.50;;;16.90;99.90;;;;;;4939472;29;20047;-77
2023/10/03 02:49:10;;;;;;;46.17;21.85;;;16.90;99.90;;;;;;4941935;29;20062;-78
2023/10/03 02:51:59;;;;;;;48.60;24.15;;;16.90;99.90;;;;;;4942198;29;20400;-81
2023/10/03 02:54:45;;;;;;;45.70;21.40;;;16.90;99.90;;;;;;4954818;29;20051;-73
2023/10/03 02:57:31;;;;;;;47.65;20.73;;;16.90;99.90;;;;;;4925914;29;20559;-80
2023/10/03 03:00:19;;;;;;;47.97;21.73;;;16.90;99.90;;;;;;4955855;29;20067;-74
2023/10/03 03:03:06;;;;;;;46.80;20.40;;;16.90;99.90;;;;;;4938985;29;20415;-74
2023/10/03 03:05:52;;;;;;;45.67;21.25;;;17.00;99.90;;;;;;4956014;28;20059;-72
2023/10/03 03:08:39;;;;;;;43.20;20.52;;;17.00;99.90;;;;;;4938899;29;20389;-77
2023/10/03 03:11:28;;;;;;;44.25;19.80;;;17.00;99.90;;;;;;4938723;29;20155;-72
2023/10/03 03:14:14;;;;;;;36.95;17.60;;;17.00;99.90;;;;;;4937930;29;20554;-77
2023/10/03 03:17:06;;;;;;;41.40;19.73;;;17.00;99.90;;;;;;4938608;29;20086;-74
2023/10/03 03:19:54;;;;;;;43.30;19.13;;;17.00;99.90;;;;;;4955843;28;20070;-80
2023/10/03 03:22:40;;;;;;;38.47;19.33;;;17.20;99.90;;;;;;4937267;29;20053;-74
2023/10/03 03:25:36;;;;;;;42.42;19.00;;;17.20;99.90;;;;;;4938505;29;20373;-73
2023/10/03 03:28:23;;;;;;;41.08;17.85;;;17.30;99.90;;;;;;4937967;29;20059;-73
2023/10/03 03:31:25;;;;;;;37.28;17.10;;;17.30;99.90;;;;;;4938574;29;20051;-73
2023/10/03 03:34:11;;;;;;;38.88;17.67;;;17.40;99.90;;;;;;4925320;29;20055;-76
2023/10/03 03:37:15;;;;;;;40.90;17.67;;;17.50;99.90;;;;;;4938470;29;20062;-72
2023/10/03 03:40:10;;;;;;;46.58;17.55;;;17.60;99.90;;;;;;4937919;29;20480;-73
2023/10/03 03:42:58;;;;;;;33.40;16.50;;;17.60;99.90;;;;;;4925046;29;20500;-74
2023/10/03 03:45:44;;;;;;;42.70;16.65;;;17.70;99.90;;;;;;4938298;29;20058;-78
2023/10/03 03:48:34;;;;;;;33.45;15.15;;;17.80;99.90;;;;;;4937364;29;20093;-82
2023/10/03 03:51:19;;;;;;;38.97;16.25;;;17.90;99.90;;;;;;4938729;29;20078;-76
2023/10/03 03:54:11;;;;;;;32.10;14.60;;;17.90;99.90;;;;;;4940006;29;20047;-74
2023/10/03 03:56:57;;;;;;;33.45;15.25;;;18.10;99.90;;;;;;4926961;29;20058;-74
2023/10/03 03:59:43;;;;;;;31.33;13.75;;;18.10;99.90;;;;;;4939660;29;20055;-82
2023/10/03 04:02:29;;;;;;;34.85;14.70;;;18.10;99.90;;;;;;4937855;29;20113;-76
2023/10/03 04:05:20;;;;;;;36.90;16.17;;;18.10;99.90;;;;;;4937628;29;20118;-80
2023/10/03 04:08:07;;;;;;;39.70;16.50;;;18.20;99.90;;;;;;4937171;29;20106;-84
2023/10/03 04:10:54;;;;;;;33.70;16.80;;;18.20;99.90;;;;;;4937712;29;20055;-77
2023/10/03 04:13:49;;;;;;;39.80;16.15;;;18.20;99.90;;;;;;4925128;29;20043;-83
2023/10/03 04:16:39;;;;;;;35.13;15.20;;;18.20;99.90;;;;;;4937234;29;20110;-75
2023/10/03 04:19:25;;;;;;;33.72;15.05;;;18.20;99.90;;;;;;4937536;29;20095;-73
2023/10/03 04:22:11;;;;;;;44.00;16.10;;;18.20;99.90;;;;;;4937124;29;20156;-72
2023/10/03 04:24:59;;;;;;;37.25;15.25;;;18.20;99.90;;;;;;4937287;29;20107;-74
2023/10/03 04:27:47;;;;;;;37.28;16.63;;;18.10;99.90;;;;;;4937201;29;20194;-71
2023/10/03 04:30:33;;;;;;;33.08;14.13;;;18.10;99.90;;;;;;4937370;29;20102;-82
2023/10/03 04:33:21;;;;;;;37.35;16.17;;;18.00;99.90;;;;;;4940177;29;20059;-77
2023/10/03 04:36:09;;;;;;;36.17;15.40;;;18.10;99.90;;;;;;4935809;29;20047;-77
2023/10/03 04:38:55;;;;;;;34.33;15.43;;;18.10;99.90;;;;;;4937240;29;20138;-77
2023/10/03 04:41:44;;;;;;;30.77;14.60;;;18.10;99.90;;;;;;4937162;29;20059;-74
2023/10/03 04:44:29;;;;;;;35.83;14.93;;;18.10;99.90;;;;;;4923978;29;20138;-79
2023/10/03 04:47:16;;;;;;;35.35;14.55;;;18.20;99.90;;;;;;4937213;29;20086;-75
2023/10/03 04:50:02;;;;;;;36.08;15.73;;;18.20;99.90;;;;;;4923866;29;20055;-76
2023/10/03 04:52:49;;;;;;;35.15;14.52;;;18.20;99.90;;;;;;4937158;29;20055;-79
2023/10/03 04:55:35;;;;;;;36.03;14.85;;;18.30;99.90;;;;;;4936464;29;20059;-82
2023/10/03 04:58:22;;;;;;;37.85;15.57;;;18.30;99.90;;;;;;4954039;28;20093;-75
2023/10/03 05:01:07;;;;;;;33.58;14.82;;;18.30;99.90;;;;;;4936778;29;20047;-77
2023/10/03 05:03:54;;;;;;;33.95;14.38;;;18.40;99.90;;;;;;4924376;29;20142;-76
2023/10/03 05:06:42;;;;;;;34.92;15.65;;;18.40;99.90;;;;;;4922252;29;20050;-79
2023/10/03 05:09:32;;;;;;;39.83;15.18;;;18.50;99.90;;;;;;4953821;29;20073;-78
2023/10/03 05:12:18;;;;;;;35.35;14.43;;;18.50;99.90;;;;;;4935963;29;20110;-72
2023/10/03 05:15:07;;;;;;;42.25;16.83;;;18.60;99.90;;;;;;4936977;29;20086;-75
2023/10/03 05:17:54;;;;;;;34.65;15.35;;;18.60;99.90;;;;;;4952862;29;20162;-72
2023/10/03 05:20:42;;;;;;;36.67;15.85;;;18.70;99.90;;;;;;4923094;28;20408;-73
2023/10/03 05:23:29;;;;;;;41.38;16.77;;;18.70;99.90;;;;;;4935807;29;20047;-76
2023/10/03 05:26:19;;;;;;;40.65;16.13;;;18.70;99.90;;;;;;4936692;29;20154;-77
2023/10/03 05:29:05;;;;;;;46.30;18.98;;;18.70;99.90;;;;;;4939078;29;20057;-73
2023/10/03 05:31:51;;;;;;;45.30;18.67;;;18.70;99.90;;;;;;4953113;29;20062;-78
2023/10/03 05:34:37;;;;;;;52.83;19.20;;;18.70;99.90;;;;;;4953596;28;20055;-82
2023/10/03 05:37:26;;;;;;;50.47;18.85;;;18.80;99.90;;;;;;4936356;29;20055;-85
2023/10/03 05:40:15;;;;;;;50.17;17.75;;;18.80;99.90;;;;;;4936473;29;20161;-82
2023/10/03 05:43:05;;;;;;;50.80;18.75;;;18.80;99.90;;;;;;4936471;29;20083;-78
2023/10/03 05:45:51;;;;;;;41.67;18.20;;;18.80;99.90;;;;;;4935443;29;20051;-78
2023/10/03 05:48:37;;;;;;;46.45;18.50;;;18.70;99.90;;;;;;4936090;29;20065;-73
2023/10/03 05:51:24;;;;;;;48.85;20.30;;;18.70;99.90;;;;;;4923630;29;20137;-79
2023/10/03 05:54:10;;;;;;;48.38;19.23;;;18.60;99.90;;;;;;4953552;28;20055;-83
2023/10/03 05:56:56;;;;;;;48.75;20.55;;;18.60;99.90;;;;;;4936351;29;20055;-82
2023/10/03 05:59:42;;;;;;;48.60;22.55;;;18.60;99.90;;;;;;4936371;29;20059;-78
2023/10/03 06:02:28;;;;;;;49.55;21.70;;;18.60;99.90;;;;;;4936579;29;20539;-81
2023/10/03 06:05:15;;;;;;;50.15;21.20;;;18.50;99.90;;;;;;4936537;29;20419;-76
2023/10/03 06:08:01;;;;;;;47.05;20.73;;;18.40;99.90;;;;;;4936238;29;20043;-79
2023/10/03 06:10:49;;;;;;;56.28;22.30;;;18.40;99.90;;;;;;4921823;29;20055;-81
2023/10/03 06:13:35;;;;;;;51.70;21.05;;;18.40;99.90;;;;;;4936221;29;20058;-80
2023/10/03 06:16:21;;;;;;;43.60;19.98;;;18.40;99.90;;;;;;4935496;29;20051;-79
2023/10/03 06:19:07;;;;;;;42.65;20.52;;;18.40;99.90;;;;;;4935358;29;20051;-79
2023/10/03 06:21:53;;;;;;;39.90;18.30;;;18.30;99.90;;;;;;4936049;29;20511;-79
2023/10/03 06:24:40;;;;;;;39.75;18.25;;;18.40;99.90;;;;;;4935742;29;20098;-81
2023/10/03 06:27:29;;;;;;;39.55;17.65;;;18.30;99.90;;;;;;4923240;29;20087;-79
2023/10/03 06:30:17;;;;;;;48.47;18.52;;;18.30;99.90;;;;;;4921468;29;20519;-82
2023/10/03 06:33:06;;;;;;;41.40;17.05;;;18.30;99.90;;;;;;4935285;29;20059;-78
2023/10/03 06:35:52;;;;;;;42.05;15.93;;;18.30;99.90;;;;;;4922321;29;20162;-77
2023/10/03 06:38:41;;;;;;;42.00;16.10;;;18.30;99.90;;;;;;4935453;29;20242;-75
2023/10/03 06:41:27;;;;;;;45.92;15.85;;;18.30;99.90;;;;;;4935144;29;20094;-84
2023/10/03 06:44:13;;;;;;;48.08;15.35;;;18.30;99.90;;;;;;4935835;29;20059;-77
2023/10/03 06:47:00;;;;;;;45.33;13.75;;;18.20;99.90;;;;;;4953125;28;20054;-72
2023/10/03 06:49:46;;;;;;;51.22;13.57;;;18.10;99.90;;;;;;4952777;28;20055;-82
2023/10/03 06:52:34;;;;;;;49.15;13.07;;;18.10;99.90;;;;;;4935842;29;20408;-83
2023/10/03 06:55:20;;;;;;;50.67;11.98;;;18.00;99.90;;;;;;4953032;28;20078;-75
2023/10/03 06:58:06;;;;;;;38.97;10.55;;;17.90;99.90;;;;;;4936845;29;20393;-86
2023/10/03 07:00:55;;;;;;;38.88;9.27;;;17.80;99.90;;;;;;4938948;29;20696;-79
2023/10/03 07:03:42;;;;;;;22.73;6.30;;;17.80;99.90;;;;;;4938875;29;20170;-78
2023/10/03 07:06:28;;;;;;;32.33;5.10;;;17.70;99.90;;;;;;4938788;29;20055;-79
2023/10/03 07:09:16;;;;;;;27.15;6.20;;;17.60;99.90;;;;;;4925907;29;20047;-74
2023/10/03 07:12:03;;;;;;;23.42;5.40;;;17.50;99.90;;;;;;4938347;29;20168;-78
2023/10/03 07:14:49;;;;;;;27.42;4.88;;;17.50;99.90;;;;;;4955866;28;20058;-80
2023/10/03 07:17:35;;;;;;;17.17;3.30;;;17.40;99.90;;;;;;4924666;29;20138;-78
2023/10/03 07:20:21;;;;;;;21.33;4.40;;;17.30;99.90;;;;;;4938674;28;20062;-75
2023/10/03 07:23:07;;;;;;;18.02;4.07;;;17.30;99.90;;;;;;4938600;29;20058;-76
2023/10/03 07:25:53;;;;;;;16.33;3.30;;;17.20;99.90;;;;;;4937260;29;20122;-80
2023/10/03 07:28:40;;;;;;;14.88;3.08;;;17.10;99.90;;;;;;4953695;29;20050;-74
2023/10/03 07:31:29;;;;;;;18.00;3.63;;;17.00;99.90;;;;;;4938572;29;20063;-80
2023/10/03 07:34:18;;;;;;;16.35;3.05;;;16.90;99.90;;;;;;4938552;29;20571;-76
2023/10/03 07:37:05;;;;;;;19.50;2.78;;;16.90;99.90;;;;;;4937881;29;20065;-79
2023/10/03 07:39:51;;;;;;;11.80;2.03;;;16.90;99.90;;;;;;4924433;29;20055;-78
2023/10/03 07:42:41;;;;;;;12.57;1.85;;;16.90;99.90;;;;;;4938164;29;20150;-81
2023/10/03 07:45:27;;;;;;;11.18;2.15;;;16.80;99.90;;;;;;4937456;29;20059;-79
2023/10/03 07:48:14;;;;;;;11.68;2.10;;;16.80;99.90;;;;;;4953654;29;20059;-78
2023/10/03 07:51:05;;;;;;;13.40;2.58;;;16.70;99.90;;;;;;4938138;29;20126;-77
2023/10/03 07:53:52;;;;;;;11.25;2.17;;;16.70;99.90;;;;;;4938198;29;20052;-81
2023/10/03 07:56:42;;;;;;;14.38;2.22;;;16.70;99.90;;;;;;4937885;29;20051;-79
2023/10/03 07:59:30;;;;;;;15.45;2.08;;;16.80;99.90;;;;;;4938292;29;20062;-77
2023/10/03 08:02:17;;;;;;;8.52;2.38;;;16.80;99.90;;;;;;4938214;29;20066;-73
2023/10/03 08:05:03;;;;;;;12.93;2.15;;;16.90;99.90;;;;;;4955263;28;20114;-82
2023/10/03 08:07:49;;;;;;;12.05;1.65;;;16.90;99.90;;;;;;4937088;29;20067;-75
2023/10/03 08:10:35;;;;;;;7.60;1.48;;;16.90;99.90;;;;;;4938356;29;20138;-72
2023/10/03 08:13:23;;;;;;;10.60;3.08;;;16.90;99.90;;;;;;4956434;28;20158;-84
2023/10/03 08:16:13;;;;;;;6.80;1.50;;;16.80;99.90;;;;;;4938065;29;20507;-81
2023/10/03 08:19:01;;;;;;;11.70;2.08;;;16.80;99.90;;;;;;4937709;29;20091;-81
2023/10/03 08:21:48;;;;;;;11.70;2.20;;;16.80;99.90;;;;;;4936329;29;20061;-78
2023/10/03 08:24:34;;;;;;;12.55;1.70;;;16.80;99.90;;;;;;4937638;29;20058;-76
2023/10/03 08:27:21;;;;;;;9.48;1.45;;;16.60;99.90;;;;;;4939677;29;20059;-81
2023/10/03 08:30:07;;;;;;;9.30;1.98;;;16.50;99.90;;;;;;4937394;29;20058;-84
2023/10/03 08:32:55;;;;;;;9.55;1.75;;;16.40;99.90;;;;;;4923829;29;20083;-80
2023/10/03 08:35:41;;;;;;;8.68;1.17;;;16.40;99.90;;;;;;4936276;29;20598;-81
2023/10/03 08:38:27;;;;;;;9.02;1.33;;;16.30;99.90;;;;;;4952006;29;20087;-73
2023/10/03 08:41:20;;;;;;;10.60;1.85;;;16.40;99.90;;;;;;4937403;29;20043;-84
2023/10/03 08:44:12;;;;;;;8.13;1.42;;;16.30;99.90;;;;;;4954423;28;20058;-79
2023/10/03 08:47:00;;;;;;;12.32;2.00;;;16.20;99.90;;;;;;4953658;29;20492;-77
2023/10/03 08:49:56;;;;;;;4.88;1.00;;;16.20;99.90;;;;;;4936900;29;20515;-82
2023/10/03 08:52:49;;;;;;;11.85;1.38;;;16.20;99.90;;;;;;4936941;29;20051;-74
2023/10/03 08:55:38;;;;;;;7.85;1.63;;;16.20;99.90;;;;;;4937364;29;20177;-82
2023/10/03 08:58:25;;;;;;;5.90;0.98;;;16.20;99.90;;;;;;4936957;29;20066;-78
2023/10/03 09:01:17;;;;;;;4.43;0.85;;;16.30;99.90;;;;;;4937229;29;20047;-83
2023/10/03 09:04:15;;;;;;;6.22;0.88;;;16.30;99.90;;;;;;4935756;29;20059;-81
2023/10/03 09:07:08;;;;;;;4.20;0.70;;;16.20;99.90;;;;;;4937080;29;20062;-87
2023/10/03 09:10:08;;;;;;;3.60;0.43;;;16.10;99.90;;;;;;4936907;29;20054;-78
2023/10/03 09:13:04;;;;;;;5.85;1.38;;;16.00;99.90;;;;;;4923536;29;20051;-86
2023/10/03 09:16:02;;;;;;;9.13;1.02;;;16.00;99.90;;;;;;4936090;29;20065;-88
2023/10/03 09:18:56;;;;;;;5.55;1.27;;;15.90;99.90;;;;;;4936285;29;20055;-86
2023/10/03 09:21:45;;;;;;;4.80;0.70;;;15.80;99.90;;;;;;4935671;29;20051;-81
2023/10/03 09:24:43;;;;;;;6.28;0.70;;;15.60;99.90;;;;;;4922514;29;20061;-88
2023/10/03 09:27:30;;;;;;;6.60;0.82;;;15.50;99.90;;;;;;4936503;29;20097;-78
2023/10/03 09:30:22;;;;;;;8.35;1.15;;;15.50;99.90;;;;;;4935106;29;20114;-77
2023/10/03 09:33:11;;;;;;;5.00;0.88;;;15.50;99.90;;;;;;4953375;29;20500;-81
2023/10/03 09:36:02;;;;;;;8.40;0.95;;;15.50;99.90;;;;;;4936290;29;20066;-83
2023/10/03 09:38:49;;;;;;;4.88;1.00;;;15.50;99.90;;;;;;4936245;29;20130;-76
2023/10/03 09:41:38;;;;;;;7.60;1.13;;;15.40;99.90;;;;;;4936098;29;20066;-82
2023/10/03 09:44:29;;;;;;;8.25;1.00;;;15.40;99.90;;;;;;4936440;29;20099;-85
2023/10/03 09:47:19;;;;;;;6.40;1.17;;;15.40;99.90;;;;;;4938624;29;20047;-80
2023/10/03 09:50:08;;;;;;;10.25;1.45;;;15.40;99.90;;;;;;4935520;29;20091;-87
2023/10/03 09:53:01;;;;;;;8.05;1.45;;;15.50;99.90;;;;;;4953516;28;20138;-84
2023/10/03 09:55:49;;;;;;;7.70;2.42;;;15.50;99.90;;;;;;4936917;29;20066;-81
2023/10/03 09:58:36;;;;;;;10.10;1.60;;;15.50;99.90;;;;;;4936310;29;20062;-81
2023/10/03 10:01:23;;;;;;;11.88;2.45;;;15.50;99.90;;;;;;4936543;29;20122;-73
2023/10/03 10:04:10;;;;;;;13.77;3.53;;;15.60;99.90;;;;;;4922158;29;20141;-77
2023/10/03 10:07:16;;;;;;;15.43;2.95;;;15.60;99.90;;;;;;4937712;29;20062;-73
2023/10/03 10:10:14;;;;;;;8.82;2.83;;;15.50;99.90;;;;;;4943463;29;20379;-75
2023/10/03 10:13:21;;;;;;;13.65;3.13;;;15.60;99.90;;;;;;4943122;29;20055;-74
2023/10/03 10:16:20;;;;;;;10.35;2.67;;;15.60;99.90;;;;;;4943444;29;20106;-77
2023/10/03 10:19:06;;;;;;;12.55;2.53;;;15.60;99.90;;;;;;4941597;29;20512;-80
2023/10/03 10:21:59;;;;;;;8.50;2.85;;;15.70;99.90;;;;;;4909635;29;20055;-76
2023/10/03 10:25:26;;;;;;;11.88;2.83;;;15.80;99.90;;;;;;4922068;29;20055;-76
2023/10/03 10:28:22;;;;;;;16.33;3.05;;;15.80;99.90;;;;;;4936994;29;20134;-75
2023/10/03 10:31:11;;;;;;;12.70;3.13;;;15.80;99.90;;;;;;4936719;29;20055;-73
2023/10/03 10:34:20;;;;;;;9.77;3.20;;;15.80;99.90;;;;;;4938788;29;20667;-74
2023/10/03 10:37:11;;;;;;;13.00;2.47;;;15.70;99.90;;;;;;4938517;29;20054;-77
2023/10/03 10:39:57;;;;;;;7.18;2.17;;;15.80;99.90;;;;;;4956717;29;20098;-76
2023/10/03 10:42:57;;;;;;;7.82;3.28;;;15.80;99.90;;;;;;4940046;29;20144;-74
2023/10/03 10:45:50;;;;;;;11.80;2.30;;;15.70;99.90;;;;;;4925506;29;20546;-73
2023/10/03 10:48:43;;;;;;;11.10;2.17;;;15.70;99.90;;;;;;4941935;29;20083;-73
2023/10/03 10:51:31;;;;;;;13.15;2.95;;;15.70;99.90;;;;;;4925967;29;20514;-74
2023/10/03 10:54:21;;;;;;;15.20;3.30;;;15.80;99.90;;;;;;4927336;29;20058;-75
2023/10/03 10:57:11;;;;;;;8.82;2.42;;;15.80;99.90;;;;;;4939652;29;20098;-74
2023/10/03 10:59:58;;;;;;;7.95;2.17;;;15.80;99.90;;;;;;4955605;29;20063;-74
2023/10/03 11:02:44;;;;;;;14.27;2.72;;;15.90;99.90;;;;;;4939260;29;20055;-78
2023/10/03 11:06:00;;;;;;;12.05;2.28;;;15.90;99.90;;;;;;4941057;29;20051;-77
2023/10/03 11:08:48;;;;;;;7.22;1.73;;;16.00;99.90;;;;;;4951266;29;20058;-74
2023/10/03 11:11:36;;;;;;;9.63;2.45;;;16.00;99.90;;;;;;4938974;29;20126;-74
2023/10/03 11:14:29;;;;;;;7.57;1.55;;;16.00;99.90;;;;;;4938871;29;20102;-74
2023/10/03 11:17:15;;;;;;;9.00;2.00;;;16.00;99.90;;;;;;4938703;29;20145;-77
2023/10/03 11:20:08;;;;;;;12.50;2.38;;;15.90;99.90;;;;;;4953978;29;20460;-76
2023/10/03 11:22:55;;;;;;;10.25;2.15;;;16.00;99.90;;;;;;4937287;29;20416;-74
2023/10/03 11:25:55;;;;;;;9.95;2.42;;;16.00;99.90;;;;;;4937753;29;20846;-73
2023/10/03 11:28:48;;;;;;;9.70;2.35;;;16.00;99.90;;;;;;4954914;29;20051;-76
2023/10/03 11:31:39;;;;;;;7.35;1.90;;;15.90;99.90;;;;;;4926634;29;20613;-72
2023/10/03 11:34:31;;;;;;;12.15;2.00;;;15.90;99.90;;;;;;4938359;29;20523;-74
2023/10/03 11:37:29;;;;;;;13.05;3.28;;;15.80;99.90;;;;;;4955494;28;20043;-77
2023/10/03 11:40:23;;;;;;;6.57;1.80;;;15.80;99.90;;;;;;4955031;29;20047;-73
2023/10/03 11:43:09;;;;;;;9.55;2.28;;;15.90;99.90;;;;;;4938203;28;20066;-74
2023/10/03 11:45:56;;;;;;;11.55;2.05;;;15.90;99.90;;;;;;4938344;29;20130;-71
2023/10/03 11:48:42;;;;;;;15.73;1.85;;;16.10;99.90;;;;;;4937696;29;20499;-75
2023/10/03 11:51:29;;;;;;;8.85;2.38;;;16.20;99.90;;;;;;4953987;29;20511;-73
2023/10/03 11:54:15;;;;;;;13.38;2.75;;;16.10;99.90;;;;;;4938621;29;20059;-74
2023/10/03 11:57:01;;;;;;;6.85;1.35;;;16.00;99.90;;;;;;4938516;29;20500;-74
2023/10/03 11:59:47;;;;;;;10.80;1.65;;;16.00;99.90;;;;;;4938384;29;20063;-73
2023/10/03 12:02:33;;;;;;;13.00;2.53;;;16.00;99.90;;;;;;4953357;29;20062;-76
2023/10/03 12:05:21;;;;;;;9.18;2.15;;;16.00;99.90;;;;;;4924701;29;20055;-78
2023/10/03 12:08:09;;;;;;;13.20;2.33;;;16.00;99.90;;;;;;4937776;29;20059;-77
2023/10/03 12:10:55;;;;;;;18.65;3.75;;;16.10;99.90;;;;;;4936869;29;20471;-74
2023/10/03 12:13:41;;;;;;;7.78;1.92;;;16.30;99.90;;;;;;4937804;29;20461;-77
2023/10/03 12:16:27;;;;;;;10.57;3.03;;;16.40;99.90;;;;;;4954378;29;20073;-82
2023/10/03 12:19:13;;;;;;;9.55;2.55;;;16.40;99.90;;;;;;4954841;28;20047;-80
2023/10/03 12:21:59;;;;;;;13.68;2.85;;;16.50;99.90;;;;;;4923524;29;20463;-75
2023/10/03 12:24:45;;;;;;;8.27;1.88;;;16.50;99.90;;;;;;4923170;29;20563;-77
2023/10/03 12:27:31;;;;;;;7.55;2.15;;;16.60;99.90;;;;;;4924117;29;20411;-74
2023/10/03 12:30:17;;;;;;;11.30;2.55;;;16.70;99.90;;;;;;4937443;29;20455;-77
2023/10/03 12:33:03;;;;;;;9.85;2.00;;;17.00;99.90;;;;;;4937595;29;20059;-74
2023/10/03 12:35:50;;;;;;;9.52;2.30;;;17.50;99.90;;;;;;4936936;29;20559;-82
2023/10/03 12:38:36;;;;;;;11.48;2.30;;;17.80;99.90;;;;;;4937071;29;20051;-79
2023/10/03 12:41:29;;;;;;;12.55;2.78;;;17.80;99.90;;;;;;4953003;29;20085;-73
2023/10/03 12:44:15;;;;;;;13.27;2.47;;;17.80;99.90;;;;;;4937453;29;20137;-74
2023/10/03 12:47:01;;;;;;;10.95;2.38;;;18.10;99.90;;;;;;4952747;29;20058;-74
2023/10/03 12:49:47;;;;;;;16.77;2.80;;;18.40;99.90;;;;;;4937061;29;20117;-77
2023/10/03 12:52:33;;;;;;;14.20;3.70;;;18.30;99.90;;;;;;4924455;29;20400;-76
2023/10/03 12:55:20;;;;;;;15.68;2.42;;;18.10;99.90;;;;;;4935931;29;20067;-75
2023/10/03 12:58:06;;;;;;;14.55;3.25;;;18.50;99.90;;;;;;4936397;29;20047;-77
2023/10/03 13:00:52;;;;;;;14.20;2.13;;;19.00;99.90;;;;;;4953568;29;20061;-78
2023/10/03 13:03:39;;;;;;;11.48;3.08;;;19.80;99.90;;;;;;4952343;29;20149;-74
2023/10/03 13:06:25;;;;;;;10.13;2.15;;;20.60;99.90;;;;;;4936787;29;20105;-74
2023/10/03 13:09:12;;;;;;;8.57;1.60;;;21.20;99.90;;;;;;4936441;29;20059;-81
2023/10/03 13:11:58;;;;;;;12.07;2.03;;;20.70;99.90;;;;;;4936894;29;20488;-73
2023/10/03 13:14:44;;;;;;;14.68;3.20;;;21.40;99.90;;;;;;4936084;29;20066;-81
2023/10/03 13:17:30;;;;;;;12.60;2.20;;;22.20;99.90;;;;;;4953423;29;20040;-78
2023/10/03 13:20:19;;;;;;;9.18;1.92;;;23.20;98.00;;;;;;4954051;28;20094;-76
2023/10/03 13:23:05;;;;;;;10.40;2.70;;;23.10;96.00;;;;;;4936068;29;20475;-80
2023/10/03 13:25:51;;;;;;;9.35;1.92;;;22.50;96.20;;;;;;4952000;29;20055;-79
2023/10/03 13:28:37;;;;;;;15.25;2.60;;;22.60;96.40;;;;;;4953166;29;20055;-81
2023/10/03 13:31:25;;;;;;;8.85;1.73;;;23.10;95.60;;;;;;4951693;29;20048;-86
2023/10/03 13:34:11;;;;;;;8.88;1.48;;;23.20;95.30;;;;;;4936323;29;20058;-75
2023/10/03 13:36:57;;;;;;;6.63;1.60;;;22.90;96.10;;;;;;4953650;28;20089;-80
2023/10/03 13:39:43;;;;;;;7.65;1.98;;;22.90;95.20;;;;;;4951924;29;20051;-77
2023/10/03 13:42:29;;;;;;;10.70;2.08;;;21.90;96.00;;;;;;4939295;29;20051;-86
2023/10/03 13:45:16;;;;;;;10.65;2.35;;;22.20;96.40;;;;;;4951576;29;20552;-82
2023/10/03 13:48:02;;;;;;;11.93;2.53;;;23.30;96.10;;;;;;4953505;28;20051;-79
2023/10/03 13:50:50;;;;;;;9.98;1.98;;;23.50;94.70;;;;;;4935321;29;20055;-82
2023/10/03 13:53:37;;;;;;;12.00;2.10;;;24.00;94.10;;;;;;4935694;29;20564;-77
2023/10/03 13:56:23;;;;;;;12.68;2.72;;;23.50;94.10;;;;;;4936133;29;20072;-81
2023/10/03 13:59:10;;;;;;;8.45;1.98;;;22.80;94.50;;;;;;4951508;29;20055;-83
2023/10/03 14:01:56;;;;;;;11.73;2.67;;;22.00;96.10;;;;;;4922140;29;20073;-76
2023/10/03 14:04:42;;;;;;;9.05;2.22;;;21.30;97.10;;;;;;4953039;29;20708;-78
2023/10/03 14:07:29;;;;;;;10.48;2.15;;;20.90;97.90;;;;;;4937649;29;20058;-77
2023/10/03 14:10:17;;;;;;;6.18;1.73;;;20.70;98.90;;;;;;4940051;29;20059;-83
2023/10/03 14:13:03;;;;;;;13.75;2.20;;;20.30;99.70;;;;;;4926840;29;20427;-81
2023/10/03 14:15:49;;;;;;;14.63;3.28;;;19.90;99.90;;;;;;4940213;29;20504;-80
2023/10/03 14:18:35;;;;;;;10.38;2.45;;;19.70;99.90;;;;;;4956069;28;20051;-81
2023/10/03 14:21:21;;;;;;;12.60;3.00;;;19.30;99.90;;;;;;4925223;29;20055;-73